createdAt,value
2023-01-30T00:00:54.940Z,18.13
2023-01-30T00:03:22.323Z,17.50
2023-01-30T00:05:48.937Z,18.97
2023-01-30T00:08:16.040Z,18.50
2023-01-30T00:10:42.784Z,17.17
2023-01-30T00:13:09.741Z,19.37
2023-01-30T00:15:36.535Z,19.60
2023-01-30T00:18:03.452Z,18.10
2023-01-30T00:20:30.304Z,18.77
2023-01-30T00:23:00.992Z,19.03
2023-01-30T00:25:28.555Z,18.10
2023-01-30T00:27:55.208Z,18.43
2023-01-30T00:30:21.667Z,20.40
2023-01-30T00:32:48.220Z,19.40
2023-01-30T00:35:14.653Z,21.00
2023-01-30T00:37:40.988Z,20.50
2023-01-30T00:40:07.818Z,19.33
2023-01-30T00:42:52.956Z,19.90
2023-01-30T00:45:38.213Z,18.33
2023-01-30T00:48:04.753Z,19.50
2023-01-30T00:50:42.376Z,19.67
2023-01-30T00:53:13.685Z,20.13
2023-01-30T00:55:40.791Z,18.97
2023-01-30T00:58:07.410Z,19.77
2023-01-30T01:00:33.867Z,19.13
2023-01-30T01:03:00.666Z,19.10
2023-01-30T01:05:27.921Z,19.33
2023-01-30T01:07:55.038Z,18.70
2023-01-30T01:10:21.895Z,19.10
2023-01-30T01:12:50.420Z,20.87
2023-01-30T01:15:17.103Z,18.10
2023-01-30T01:17:43.996Z,19.00
2023-01-30T01:20:10.827Z,19.87
2023-01-30T01:22:37.219Z,21.13
2023-01-30T01:25:04.425Z,20.87
2023-01-30T01:27:30.974Z,19.93
2023-01-30T01:29:57.299Z,21.60
2023-01-30T01:32:23.799Z,20.77
2023-01-30T01:34:50.132Z,21.80
2023-01-30T01:37:16.475Z,21.37
2023-01-30T01:40:01.654Z,21.23
2023-01-30T01:42:31.906Z,20.70
2023-01-30T01:45:13.455Z,20.27
2023-01-30T01:47:49.495Z,21.57
2023-01-30T01:50:21.083Z,21.27
2023-01-30T01:52:52.469Z,21.23
2023-01-30T01:55:21.237Z,21.10
2023-01-30T01:57:53.588Z,20.07
2023-01-30T02:00:21.445Z,20.80
2023-01-30T02:03:01.344Z,19.83
2023-01-30T02:05:33.973Z,20.83
2023-01-30T02:08:06.156Z,21.17
2023-01-30T02:10:54.436Z,22.03
2023-01-30T02:13:21.051Z,22.80
2023-01-30T02:15:47.538Z,21.20
2023-01-30T02:18:15.208Z,21.23
2023-01-30T02:21:27.382Z,20.90
2023-01-30T02:24:32.203Z,19.30
2023-01-30T02:27:07.746Z,21.67
2023-01-30T02:29:53.050Z,21.47
2023-01-30T02:32:38.313Z,20.63
2023-01-30T02:35:17.727Z,19.83
2023-01-30T02:37:44.183Z,20.30
2023-01-30T02:40:25.860Z,20.63
2023-01-30T02:43:18.752Z,22.07
2023-01-30T02:45:54.515Z,20.37
2023-01-30T02:48:30.845Z,20.10
2023-01-30T02:51:01.128Z,22.73
2023-01-30T02:53:32.846Z,21.00
2023-01-30T02:55:59.461Z,19.77
2023-01-30T02:58:31.155Z,21.30
2023-01-30T03:01:26.917Z,21.37
2023-01-30T03:04:11.242Z,22.50
2023-01-30T03:07:32.773Z,21.73
2023-01-30T03:10:37.751Z,21.13
2023-01-30T03:13:19.455Z,21.17
2023-01-30T03:16:02.876Z,20.13
2023-01-30T03:18:29.638Z,22.13
2023-01-30T03:20:56.868Z,22.60
2023-01-30T03:23:23.212Z,21.37
2023-01-30T03:25:49.913Z,21.60
2023-01-30T03:28:19.450Z,20.63
2023-01-30T03:30:45.831Z,22.63
2023-01-30T03:33:12.203Z,21.97
2023-01-30T03:35:39.044Z,21.80
2023-01-30T03:38:05.419Z,22.70
2023-01-30T03:40:32.119Z,23.07
2023-01-30T03:42:58.653Z,23.53
2023-01-30T03:45:25.016Z,19.73
2023-01-30T03:47:51.879Z,22.43
2023-01-30T03:50:18.212Z,21.33
2023-01-30T03:52:44.525Z,21.33
2023-01-30T03:55:11.257Z,20.20
2023-01-30T03:57:37.823Z,20.67
2023-01-30T04:00:04.763Z,21.40
2023-01-30T04:02:31.149Z,21.87
2023-01-30T04:04:57.491Z,21.77
2023-01-30T04:07:24.135Z,21.20
2023-01-30T04:09:50.509Z,22.50
2023-01-30T04:12:16.847Z,20.40
2023-01-30T04:14:43.169Z,22.03
2023-01-30T04:17:09.479Z,20.03
2023-01-30T04:19:35.801Z,21.13
2023-01-30T04:22:02.137Z,18.60
2023-01-30T04:24:28.500Z,22.47
2023-01-30T04:26:54.881Z,19.83
2023-01-30T04:29:21.192Z,19.40
2023-01-30T04:31:47.498Z,19.33
2023-01-30T04:34:14.001Z,21.03
2023-01-30T04:36:40.347Z,20.67
2023-01-30T04:39:06.701Z,23.87
2023-01-30T04:41:33.032Z,20.60
2023-01-30T04:43:59.343Z,21.40
2023-01-30T04:46:25.695Z,21.00
2023-01-30T04:48:52.158Z,17.87
2023-01-30T04:51:18.476Z,19.13
2023-01-30T04:53:44.865Z,19.47
2023-01-30T04:56:11.424Z,21.70
2023-01-30T04:58:37.767Z,18.90
2023-01-30T05:01:22.809Z,21.50
2023-01-30T05:03:51.046Z,20.60
2023-01-30T05:06:17.408Z,21.10
2023-01-30T05:08:46.590Z,19.50
2023-01-30T05:11:13.163Z,21.63
2023-01-30T05:13:39.495Z,21.33
2023-01-30T05:16:06.327Z,21.90
2023-01-30T05:18:33.925Z,21.33
2023-01-30T05:21:08.505Z,20.77
2023-01-30T05:23:35.370Z,21.03
2023-01-30T05:26:02.275Z,19.03
2023-01-30T05:28:29.303Z,21.10
2023-01-30T05:31:02.182Z,20.33
2023-01-30T05:33:28.936Z,20.30
2023-01-30T05:35:55.294Z,20.73
2023-01-30T05:38:23.005Z,19.37
2023-01-30T05:40:59.338Z,20.90
2023-01-30T05:43:25.954Z,19.80
2023-01-30T05:45:56.355Z,20.17
2023-01-30T05:48:23.767Z,20.13
2023-01-30T05:50:51.860Z,17.23
2023-01-30T05:53:22.021Z,19.13
2023-01-30T05:56:15.243Z,19.97
2023-01-30T05:58:41.957Z,18.83
2023-01-30T06:01:11.764Z,19.73
2023-01-30T06:03:38.955Z,20.17
2023-01-30T06:06:06.115Z,21.27
2023-01-30T06:08:33.191Z,22.23
2023-01-30T06:11:13.865Z,22.23
2023-01-30T06:13:40.328Z,23.10
2023-01-30T06:16:08.293Z,24.90
2023-01-30T06:18:35.789Z,22.73
2023-01-30T06:21:02.175Z,23.03
2023-01-30T06:23:28.591Z,27.50
2023-01-30T06:25:55.631Z,22.97
2023-01-30T06:28:23.092Z,23.77
2023-01-30T06:30:49.881Z,23.23
2023-01-30T06:33:16.561Z,23.37
2023-01-30T06:35:44.077Z,24.37
2023-01-30T06:38:11.621Z,25.10
2023-01-30T06:40:38.499Z,25.23
2023-01-30T06:43:05.076Z,24.20
2023-01-30T06:45:31.517Z,25.80
2023-01-30T06:47:57.966Z,24.40
2023-01-30T06:50:26.658Z,25.93
2023-01-30T06:52:54.131Z,24.33
2023-01-30T06:55:22.771Z,22.40
2023-01-30T06:57:49.788Z,22.40
2023-01-30T07:00:18.913Z,22.77
2023-01-30T07:02:46.534Z,24.10
2023-01-30T07:05:12.915Z,24.03
2023-01-30T07:07:39.554Z,22.23
2023-01-30T07:10:09.207Z,23.20
2023-01-30T07:12:36.221Z,24.30
2023-01-30T07:15:03.844Z,23.70
2023-01-30T07:17:30.364Z,22.43
2023-01-30T07:19:56.897Z,21.30
2023-01-30T07:22:23.391Z,21.80
2023-01-30T07:24:49.785Z,22.10
2023-01-30T07:27:16.928Z,20.77
2023-01-30T07:29:43.359Z,21.93
2023-01-30T07:32:15.610Z,23.60
2023-01-30T07:34:42.149Z,20.93
2023-01-30T07:37:08.564Z,22.43
2023-01-30T07:39:35.313Z,20.97
2023-01-30T07:42:02.531Z,22.57
2023-01-30T07:44:28.881Z,21.83
2023-01-30T07:46:55.290Z,21.83
2023-01-30T07:49:21.644Z,23.10
2023-01-30T07:51:48.059Z,21.00
2023-01-30T07:54:14.456Z,21.90
2023-01-30T07:56:40.809Z,20.50
2023-01-30T07:59:07.204Z,23.30
2023-01-30T08:01:33.527Z,23.53
2023-01-30T08:03:59.848Z,22.93
2023-01-30T08:06:26.239Z,25.47
2023-01-30T08:08:52.582Z,23.20
2023-01-30T08:11:18.913Z,22.30
2023-01-30T08:13:45.331Z,23.57
2023-01-30T08:16:11.741Z,21.97
2023-01-30T08:18:38.260Z,21.87
2023-01-30T08:21:07.143Z,22.97
2023-01-30T08:23:34.549Z,21.87
2023-01-30T08:26:03.190Z,21.40
2023-01-30T08:28:30.868Z,21.00
2023-01-30T08:30:57.661Z,21.70
2023-01-30T08:33:24.964Z,20.40
2023-01-30T08:35:51.613Z,20.70
2023-01-30T08:38:17.968Z,20.90
2023-01-30T08:40:44.364Z,18.37
2023-01-30T08:43:10.722Z,18.70
2023-01-30T08:45:37.120Z,18.20
2023-01-30T08:48:05.741Z,18.00
2023-01-30T08:50:33.309Z,18.07
2023-01-30T08:53:07.632Z,18.07
2023-01-30T08:55:34.027Z,17.60
2023-01-30T08:58:00.404Z,17.97
2023-01-30T09:00:28.129Z,19.10
2023-01-30T09:02:56.056Z,18.40
2023-01-30T09:05:22.508Z,19.20
2023-01-30T09:07:50.295Z,17.33
2023-01-30T09:10:17.716Z,18.03
2023-01-30T09:12:44.588Z,15.53
2023-01-30T09:15:11.388Z,18.23
2023-01-30T09:17:38.450Z,16.00
2023-01-30T09:20:09.711Z,17.20
2023-01-30T09:22:36.772Z,17.60
2023-01-30T09:25:03.608Z,15.80
2023-01-30T09:27:29.941Z,16.80
2023-01-30T09:29:56.344Z,17.33
2023-01-30T09:32:23.556Z,15.73
2023-01-30T09:34:49.915Z,16.40
2023-01-30T09:37:16.263Z,14.60
2023-01-30T09:39:42.599Z,14.90
2023-01-30T09:42:32.794Z,15.10
2023-01-30T09:45:25.239Z,14.90
2023-01-30T09:48:33.780Z,16.10
2023-01-30T09:51:26.865Z,16.43
2023-01-30T09:54:08.435Z,15.70
2023-01-30T09:56:34.972Z,15.47
2023-01-30T09:59:03.448Z,13.93
2023-01-30T10:01:40.675Z,15.37
2023-01-30T10:04:29.482Z,14.43
2023-01-30T10:06:59.688Z,14.23
2023-01-30T10:09:38.443Z,14.83
2023-01-30T10:12:29.783Z,15.10
2023-01-30T10:15:28.893Z,15.47
2023-01-30T10:18:07.913Z,15.17
2023-01-30T10:20:39.526Z,17.20
2023-01-30T10:23:18.926Z,17.70
2023-01-30T10:25:49.395Z,16.33
2023-01-30T10:28:21.469Z,16.93
2023-01-30T10:30:49.350Z,18.90
2023-01-30T10:33:22.593Z,17.37
2023-01-30T10:36:10.476Z,17.37
2023-01-30T10:38:46.332Z,18.33
2023-01-30T10:41:34.732Z,19.67
2023-01-30T10:44:13.453Z,20.17
2023-01-30T10:47:12.382Z,19.10
2023-01-30T10:49:52.583Z,19.17
2023-01-30T10:52:32.732Z,20.27
2023-01-30T10:55:31.484Z,20.27
2023-01-30T10:58:23.679Z,17.63
2023-01-30T11:01:01.170Z,19.17
2023-01-30T11:03:49.242Z,19.37
2023-01-30T11:06:19.415Z,20.73
2023-01-30T11:08:46.101Z,18.80
2023-01-30T11:11:27.074Z,19.23
2023-01-30T11:14:08.150Z,19.03
2023-01-30T11:16:43.498Z,17.90
2023-01-30T11:19:20.852Z,18.70
2023-01-30T11:21:54.423Z,19.80
2023-01-30T11:24:29.196Z,18.90
2023-01-30T11:27:08.925Z,20.13
2023-01-30T11:29:39.220Z,17.37
2023-01-30T11:32:13.013Z,19.67
2023-01-30T11:34:43.033Z,18.83
2023-01-30T11:37:27.428Z,19.50
2023-01-30T11:39:54.313Z,18.90
2023-01-30T11:42:29.483Z,20.00
2023-01-30T11:45:15.538Z,18.13
2023-01-30T11:48:05.001Z,19.10
2023-01-30T11:50:44.546Z,19.00
2023-01-30T11:53:23.792Z,19.60
2023-01-30T11:56:02.869Z,17.93
2023-01-30T11:58:33.944Z,18.37
2023-01-30T12:01:02.049Z,18.57
2023-01-30T12:03:29.956Z,18.57
2023-01-30T12:05:58.698Z,19.30
2023-01-30T12:08:41.054Z,18.60
2023-01-30T12:11:28.864Z,20.00
2023-01-30T12:14:04.997Z,19.37
2023-01-30T12:16:44.319Z,20.60
2023-01-30T12:19:33.903Z,20.80
2023-01-30T12:22:18.756Z,19.70
2023-01-30T12:25:01.384Z,18.00
2023-01-30T12:27:55.241Z,20.17
2023-01-30T12:33:06.801Z,19.63
2023-01-30T12:36:01.276Z,19.20
2023-01-30T12:38:58.167Z,20.87
2023-01-30T12:41:55.525Z,19.07
2023-01-30T12:44:42.783Z,19.40
2023-01-30T12:47:41.691Z,19.63
2023-01-30T12:50:21.111Z,19.80
2023-01-30T12:52:59.249Z,18.20
2023-01-30T12:55:51.359Z,18.50
2023-01-30T12:58:46.650Z,18.97
2023-01-30T13:01:40.307Z,18.40
2023-01-30T13:04:24.988Z,19.87
2023-01-30T13:07:22.403Z,17.57
2023-01-30T13:09:58.599Z,18.77
2023-01-30T13:12:42.034Z,19.27
2023-01-30T13:15:31.960Z,17.60
2023-01-30T13:18:15.272Z,18.23
2023-01-30T13:20:52.542Z,18.40
2023-01-30T13:23:36.400Z,20.03
2023-01-30T13:26:10.199Z,18.50
2023-01-30T13:28:48.585Z,18.67
2023-01-30T13:31:21.238Z,19.40
2023-01-30T13:33:50.720Z,19.83
2023-01-30T13:36:22.747Z,18.80
2023-01-30T13:39:03.943Z,18.37
2023-01-30T13:41:35.638Z,17.63
2023-01-30T13:44:13.420Z,17.17
2023-01-30T13:46:40.335Z,17.53
2023-01-30T13:49:15.771Z,17.90
2023-01-30T13:51:47.253Z,18.63
2023-01-30T13:54:23.904Z,18.70
2023-01-30T13:57:23.737Z,18.43
2023-01-30T14:00:18.217Z,19.20
2023-01-30T14:03:03.162Z,18.77
2023-01-30T14:05:51.555Z,18.50
2023-01-30T14:08:22.860Z,18.90
2023-01-30T14:10:50.129Z,18.07
2023-01-30T14:13:17.631Z,20.23
2023-01-30T14:15:58.962Z,18.30
2023-01-30T14:18:33.733Z,19.00
2023-01-30T14:21:13.813Z,19.57
2023-01-30T14:23:53.532Z,17.60
2023-01-30T14:26:48.559Z,18.00
2023-01-30T14:29:42.909Z,17.40
2023-01-30T14:32:13.977Z,17.57
2023-01-30T14:35:09.895Z,18.37
2023-01-30T14:37:39.078Z,17.73
2023-01-30T14:40:20.751Z,17.40
2023-01-30T14:43:12.258Z,18.47
2023-01-30T14:45:47.969Z,17.33
2023-01-30T14:48:32.075Z,16.10
2023-01-30T14:51:36.891Z,19.37
2023-01-30T14:54:10.027Z,18.37
2023-01-30T14:56:54.611Z,18.80
2023-01-30T14:59:26.335Z,18.83
2023-01-30T15:02:11.985Z,17.50
2023-01-30T15:04:56.016Z,17.40
2023-01-30T15:07:27.401Z,18.30
2023-01-30T15:10:32.589Z,18.10
2023-01-30T15:13:21.491Z,18.57
2023-01-30T15:16:19.863Z,19.27
2023-01-30T15:19:14.517Z,18.10
2023-01-30T15:22:02.948Z,16.47
2023-01-30T15:24:47.985Z,17.90
2023-01-30T15:27:31.484Z,18.10
2023-01-30T15:30:20.929Z,18.50
2023-01-30T15:32:47.550Z,19.77
2023-01-30T15:35:17.105Z,19.37
2023-01-30T15:37:46.405Z,19.93
2023-01-30T15:40:16.036Z,18.87
2023-01-30T15:43:00.664Z,18.40
2023-01-30T15:46:11.262Z,18.70
2023-01-30T15:49:16.553Z,16.40
2023-01-30T15:51:43.088Z,18.60
2023-01-30T15:54:14.568Z,17.23
2023-01-30T15:56:41.116Z,18.93
2023-01-30T15:59:08.404Z,18.70
2023-01-30T16:01:34.788Z,18.20
2023-01-30T16:04:04.856Z,17.57
2023-01-30T16:06:34.544Z,18.10
2023-01-30T16:09:19.739Z,17.40
2023-01-30T16:11:46.251Z,19.40
2023-01-30T16:14:15.053Z,17.60
2023-01-30T16:16:47.090Z,18.90
2023-01-30T16:19:21.223Z,18.80
2023-01-30T16:21:48.203Z,18.47
2023-01-30T16:24:24.663Z,17.50
2023-01-30T16:27:00.745Z,19.80
2023-01-30T16:29:30.006Z,18.47
2023-01-30T16:31:57.252Z,19.90
2023-01-30T16:34:38.311Z,18.70
2023-01-30T16:37:07.563Z,19.40
2023-01-30T16:39:36.281Z,18.43
2023-01-30T16:42:19.919Z,19.87
2023-01-30T16:44:46.285Z,18.37
2023-01-30T16:47:25.092Z,19.33
2023-01-30T16:49:53.284Z,19.80
2023-01-30T16:52:26.107Z,20.10
2023-01-30T16:54:55.934Z,21.10
2023-01-30T16:57:36.312Z,21.43
2023-01-30T17:00:21.268Z,22.33
2023-01-30T17:02:53.335Z,23.40
2023-01-30T17:05:22.779Z,21.97
2023-01-30T17:07:50.463Z,21.73
2023-01-30T17:10:41.656Z,23.10
2023-01-30T17:13:30.457Z,23.43
2023-01-30T17:16:25.957Z,22.60
2023-01-30T17:18:55.205Z,23.70
2023-01-30T17:21:23.656Z,22.73
2023-01-30T17:23:55.148Z,22.00
2023-01-30T17:26:21.604Z,20.67
2023-01-30T17:28:48.000Z,22.73
2023-01-30T17:31:15.711Z,21.43
2023-01-30T17:33:42.659Z,18.27
2023-01-30T17:36:25.866Z,22.87
2023-01-30T17:38:52.429Z,21.37
2023-01-30T17:41:21.281Z,21.20
2023-01-30T17:43:49.736Z,19.93
2023-01-30T17:46:17.216Z,20.70
2023-01-30T17:48:44.397Z,19.30
2023-01-30T17:51:13.983Z,20.47
2023-01-30T17:53:41.688Z,21.80
2023-01-30T17:56:17.319Z,20.53
2023-01-30T17:58:43.647Z,20.10
2023-01-30T18:01:11.915Z,21.30
2023-01-30T18:03:38.238Z,19.27
2023-01-30T18:06:04.727Z,19.70
2023-01-30T18:08:31.056Z,20.20
2023-01-30T18:10:57.463Z,20.93
2023-01-30T18:13:23.801Z,18.53
2023-01-30T18:15:52.357Z,19.90
2023-01-30T18:18:19.008Z,19.50
2023-01-30T18:20:46.849Z,18.90
2023-01-30T18:23:13.811Z,20.93
2023-01-30T18:25:40.145Z,18.30
2023-01-30T18:28:09.917Z,19.50
2023-01-30T18:30:36.335Z,17.40
2023-01-30T18:33:02.681Z,18.50
2023-01-30T18:35:29.096Z,19.07
2023-01-30T18:37:59.387Z,18.00
2023-01-30T18:40:28.671Z,18.90
2023-01-30T18:42:54.990Z,18.80
2023-01-30T18:45:21.336Z,17.50
2023-01-30T18:47:47.836Z,17.33
2023-01-30T18:50:14.219Z,19.13
2023-01-30T18:52:40.548Z,18.80
2023-01-30T18:55:07.181Z,19.30
2023-01-30T18:57:33.515Z,17.53
2023-01-30T18:59:59.848Z,19.27
2023-01-30T19:02:26.203Z,19.40
2023-01-30T19:04:52.582Z,18.70
2023-01-30T19:07:18.998Z,17.10
2023-01-30T19:09:45.402Z,17.30
2023-01-30T19:12:30.604Z,16.80
2023-01-30T19:14:56.943Z,15.93
2023-01-30T19:17:23.319Z,17.30
2023-01-30T19:19:49.860Z,19.27
2023-01-30T19:22:17.970Z,17.07
2023-01-30T19:24:44.560Z,18.27
2023-01-30T19:27:13.692Z,17.73
2023-01-30T19:29:41.393Z,16.80
2023-01-30T19:32:07.719Z,16.07
2023-01-30T19:34:34.079Z,16.83
2023-01-30T19:37:01.102Z,16.40
2023-01-30T19:39:27.438Z,16.60
2023-01-30T19:41:53.780Z,14.90
2023-01-30T19:44:20.162Z,15.00
2023-01-30T19:46:46.643Z,16.27
2023-01-30T19:49:13.036Z,15.90
2023-01-30T19:51:40.517Z,16.77
2023-01-30T19:54:09.439Z,16.27
2023-01-30T19:56:37.484Z,17.37
2023-01-30T19:59:04.490Z,15.70
2023-01-30T20:01:35.257Z,17.40
2023-01-30T20:04:02.389Z,16.20
2023-01-30T20:06:31.700Z,12.87
2023-01-30T20:09:00.891Z,19.10
2023-01-30T20:11:27.795Z,13.77
2023-01-30T20:13:54.763Z,11.50
2023-01-30T20:16:25.274Z,13.47
2023-01-30T20:18:59.739Z,12.47
2023-01-30T20:21:27.225Z,13.33
2023-01-30T20:23:54.848Z,12.23
2023-01-30T20:26:24.421Z,14.03
2023-01-30T20:28:51.207Z,12.40
2023-01-30T20:31:20.567Z,13.23
2023-01-30T20:33:47.484Z,13.40
2023-01-30T20:36:17.568Z,13.80
2023-01-30T20:38:45.366Z,13.87
2023-01-30T20:41:14.809Z,13.33
2023-01-30T20:43:46.569Z,14.53
2023-01-30T20:46:18.589Z,12.27
2023-01-30T20:48:45.517Z,12.63
2023-01-30T20:51:18.037Z,12.53
2023-01-30T20:53:50.135Z,12.23
2023-01-30T20:56:16.757Z,12.20
2023-01-30T20:58:43.271Z,12.47
2023-01-30T21:01:12.386Z,12.23
2023-01-30T21:03:39.563Z,10.80
2023-01-30T21:06:06.005Z,11.40
2023-01-30T21:08:32.551Z,12.60
2023-01-30T21:11:14.641Z,13.47
2023-01-30T21:13:41.687Z,13.37
2023-01-30T21:16:20.941Z,12.60
2023-01-30T21:18:49.908Z,15.20
2023-01-30T21:21:19.936Z,20.20
2023-01-30T21:23:47.505Z,12.33
2023-01-30T21:26:15.698Z,14.90
2023-01-30T21:28:42.898Z,12.60
2023-01-30T21:31:12.903Z,12.13
2023-01-30T21:33:40.211Z,12.40
2023-01-30T21:36:07.335Z,10.47
2023-01-30T21:38:52.916Z,9.03
2023-01-30T21:41:40.322Z,11.80
2023-01-30T21:44:06.914Z,11.77
2023-01-30T21:46:51.755Z,10.00
2023-01-30T21:49:19.082Z,11.20
2023-01-30T21:51:47.434Z,10.30
2023-01-30T21:54:15.429Z,11.30
2023-01-30T21:56:42.288Z,9.73
2023-01-30T21:59:08.671Z,10.60
2023-01-30T22:01:36.669Z,10.60
2023-01-30T22:04:05.499Z,9.93
2023-01-30T22:06:32.807Z,10.57
2023-01-30T22:09:01.201Z,9.93
2023-01-30T22:11:28.692Z,9.50
2023-01-30T22:13:55.840Z,10.30
2023-01-30T22:16:27.402Z,10.40
2023-01-30T22:18:56.522Z,10.23
2023-01-30T22:21:24.991Z,9.77
2023-01-30T22:23:52.939Z,9.90
2023-01-30T22:26:21.584Z,9.97
2023-01-30T22:28:48.045Z,9.20
2023-01-30T22:31:17.580Z,9.70
2023-01-30T22:33:45.916Z,9.93
2023-01-30T22:36:13.073Z,8.50
2023-01-30T22:38:47.599Z,9.27
2023-01-30T22:41:18.256Z,8.70
2023-01-30T22:43:58.489Z,9.40
2023-01-30T22:46:33.482Z,10.70
2023-01-30T22:49:01.683Z,10.03
2023-01-30T22:51:30.469Z,10.30
2023-01-30T22:54:02.176Z,9.23
2023-01-30T22:56:31.485Z,9.43
2023-01-30T22:58:57.826Z,8.90
2023-01-30T23:01:26.595Z,8.43
2023-01-30T23:03:57.319Z,9.53
2023-01-30T23:06:24.444Z,9.50
2023-01-30T23:08:52.515Z,8.20
2023-01-30T23:11:40.563Z,9.57
2023-01-30T23:14:13.367Z,9.33
2023-01-30T23:16:43.349Z,8.60
2023-01-30T23:19:11.647Z,8.30
2023-01-30T23:21:43.503Z,9.00
2023-01-30T23:24:15.764Z,9.30
2023-01-30T23:26:46.399Z,8.67
2023-01-30T23:29:15.041Z,8.90
2023-01-30T23:31:42.824Z,10.93
2023-01-30T23:34:18.280Z,8.80
2023-01-30T23:36:45.782Z,9.50
2023-01-30T23:39:13.405Z,11.07
2023-01-30T23:41:41.777Z,9.97
2023-01-30T23:44:08.247Z,9.90
2023-01-30T23:46:37.688Z,9.87
2023-01-30T23:49:09.536Z,8.60
2023-01-30T23:51:38.697Z,10.10
2023-01-30T23:54:05.747Z,9.33
2023-01-30T23:56:36.201Z,9.03
2023-01-30T23:59:03.359Z,9.00
